Latest Weather Observations for Cape Bruny AWS

IDT60901

Issued at 10:31 pm EDT Monday 5 December 2022 (issued every 10 minutes, with the page automatically refreshed every 10 minutes)

About weather observations | Map of Hobart area stations | Latest observations for Hobart area | Other Formats
Station Details ID: 094198 Name: CAPE BRUNY (CAPE BRUNY) Lat: -43.49 Lon: 147.14 Height: 59.7 m
Data from the previous 72 hours. | See also: Recent months at Cape Bruny AWS
Date/Time
EDT
Temp
°C
App
Temp
°C
Dew
Point
°C
Rel
Hum
%
Delta-T
°C
Wind Press
QNH
hPa
Press
MSL
hPa
Rain since
9am
mm
Dir  Spd
km/h
Gust
km/h
Spd
kts
Gust
kts
05/10:30pm 11.1 4.8 1.6 52 4.0 S 24 35 13 19 1016.8 1016.8 0.2
05/10:00pm 10.9 6.6 3.5 60 3.3 SSE 15 26 8 14 1016.8 1016.8 0.2
05/09:30pm 11.0 5.1 1.8 53 3.9 SSE 22 37 12 20 1016.9 1016.9 0.2
05/09:00pm 11.0 5.0 3.5 60 3.3 SSE 24 33 13 18 1016.6 1016.6 0.2
05/08:30pm 10.9 3.6 2.5 56 3.6 SSE 30 37 16 20 1016.5 1016.5 0.2
05/08:00pm 11.0 3.4 3.1 58 3.4 SSE 32 41 17 22 1016.3 1016.3 0.2
05/07:30pm 10.9 4.9 3.2 59 3.4 S 24 39 13 21 1015.9 1015.9 0.2
05/07:17pm 11.2 3.7 3.5 59 3.4 S 32 52 17 28 1015.7 1015.7 0.2
05/07:00pm 11.3 4.2 3.8 60 3.3 S 30 46 16 25 1015.5 1015.5 0.2
05/06:30pm 11.6 5.5 4.8 63 3.1 SSE 26 33 14 18 1015.1 1015.1 0.2
05/06:00pm 12.1 6.0 4.6 60 3.4 SSE 26 35 14 19 1014.9 1014.9 0.2
05/05:30pm 12.6 6.2 5.3 61 3.4 SSE 28 35 15 19 1014.6 1014.6 0.2
05/05:00pm 12.9 6.4 4.6 57 3.8 SSE 28 39 15 21 1014.7 1014.7 0.2
05/04:30pm 13.5 6.9 5.9 60 3.6 S 30 39 16 21 1014.5 1014.5 0.2
05/04:00pm 13.2 5.3 4.4 55 4.0 SSE 35 43 19 23 1014.3 1014.3 0.2
05/03:30pm 13.0 4.8 4.7 57 3.8 SSE 37 46 20 25 1014.2 1014.2 0.2
05/03:00pm 12.6 3.9 4.1 56 3.9 SSE 39 52 21 28 1014.1 1014.1 0.2
05/02:30pm 12.5 4.1 5.4 62 3.3 SSE 39 48 21 26 1013.8 1013.8 0.2
05/02:00pm 12.9 5.1 6.5 65 3.1 SSE 37 48 20 26 1013.7 1013.7 0.2
05/01:30pm 12.1 3.9 6.6 69 2.6 SSE 39 54 21 29 1013.5 1013.5 0.2
05/01:02pm 11.4 5.5 7.7 78 1.8 S 28 46 15 25 1013.4 1013.4 0.2
05/01:00pm 11.3 5.4 7.4 77 1.9 S 28 46 15 25 1013.4 1013.4 0.2
05/12:30pm 12.3 6.3 8.6 78 1.8 SSE 30 56 16 30 1013.1 1013.1 0.2
05/12:01pm 11.8 3.4 7.3 74 2.2 SSE 41 59 22 32 1012.7 1012.7 0.2
05/12:00pm 11.8 3.0 7.3 74 2.2 SSE 43 59 23 32 1012.7 1012.7 0.2
05/11:42am 11.6 4.8 7.5 76 2.0 S 33 52 18 28 1012.4 1012.4 0.2
05/11:30am 11.4 5.1 7.5 77 1.9 S 30 46 16 25 1012.3 1012.3 0.2
05/11:00am 10.9 6.5 9.0 88 0.9 SSE 22 44 12 24 1012.1 1012.1 0.2
05/10:43am 10.8 3.1 8.7 87 1.0 SSE 39 57 21 31 1012.2 1012.2 0.0
05/10:30am 11.4 5.2 7.9 79 1.7 S 30 44 16 24 1012.0 1012.0 0.0
05/10:21am 11.5 5.7 8.0 79 1.7 S 28 46 15 25 1011.9 1011.9 0.0
05/10:00am 11.4 4.0 8.3 81 1.5 SSE 37 48 20 26 1011.8 1011.8 0.0
05/09:30am 11.1 3.4 8.5 84 1.3 SSE 39 65 21 35 1011.6 1011.6 0.0
05/09:01am 10.8 3.2 8.9 88 0.9 S 39 57 21 31 1011.3 1011.3 0.0
05/09:00am 10.8 2.8 8.9 88 0.9 S 41 57 22 31 1011.3 1011.3 4.2
05/08:48am 10.9 3.5 8.5 85 1.2 S 37 56 20 30 1011.2 1011.2 4.2
05/08:30am 11.0 3.0 8.9 87 1.0 SSE 41 56 22 30 1011.0 1011.0 4.2
05/08:06am 11.2 4.5 9.8 91 0.7 S 35 56 19 30 1010.6 1010.6 4.0
05/08:00am 11.3 4.7 9.9 91 0.7 S 35 50 19 27 1010.5 1010.5 3.8
05/07:50am 11.3 4.3 9.9 91 0.7 S 37 54 20 29 1010.3 1010.3 3.8
05/07:38am 11.5 6.3 10.1 91 0.7 SSE 28 48 15 26 1010.2 1010.2 3.6
05/07:30am 11.4 6.1 10.0 91 0.7 SSE 28 46 15 25 1010.1 1010.1 3.6
05/07:00am 11.5 5.5 10.1 91 0.7 S 32 54 17 29 1009.6 1009.5 3.6
05/06:32am 11.5 6.3 10.1 91 0.7 S 28 46 15 25 1009.0 1008.9 3.2
05/06:30am 11.5 5.9 10.1 91 0.7 S 30 46 16 25 1009.0 1008.9 3.2
05/06:09am 11.4 4.8 10.1 92 0.7 S 35 54 19 29 1008.7 1008.6 3.2
05/06:00am 11.5 6.3 10.4 93 0.6 S 28 44 15 24 1008.4 1008.3 3.2
05/05:38am 11.4 6.3 10.5 94 0.5 S 28 46 15 25 1008.3 1008.2 3.0
05/05:30am 11.6 6.5 10.7 94 0.5 S 28 43 15 23 1008.3 1008.2 2.8
05/05:00am 11.4 4.6 10.5 94 0.5 S 37 56 20 30 1007.6 1007.5 2.2
05/04:30am 11.9 6.0 11.0 94 0.5 S 33 56 18 30 1007.4 1007.3 1.8
05/04:06am 12.0 6.7 11.1 94 0.5 SSE 30 52 16 28 1006.9 1006.8 1.6
05/04:00am 11.9 6.5 11.0 94 0.5 SSE 30 52 16 28 1006.8 1006.7 1.6
05/03:30am 12.0 6.1 11.1 94 0.5 SSE 33 52 18 28 1006.9 1006.8 1.6
05/03:02am 12.4 6.2 11.3 93 0.6 S 35 54 19 29 1006.8 1006.7 1.0
05/03:00am 12.5 5.9 11.4 93 0.6 S 37 50 20 27 1006.8 1006.7 1.0
05/02:49am 13.0 8.3 11.9 93 0.6 S 28 46 15 25 1006.9 1006.8 0.4
05/02:30am 13.3 9.4 12.0 92 0.7 SSE 24 39 13 21 1006.7 1006.6 0.0
05/02:00am 13.5 8.5 12.2 92 0.7 SE 30 41 16 22 1006.6 1006.5 0.0
05/01:30am 13.6 8.6 12.3 92 0.7 SE 30 35 16 19 1006.6 1006.5 0.0
05/01:00am 13.8 8.9 12.4 91 0.8 ESE 30 35 16 19 1006.7 1006.6 0.0
05/12:30am 13.7 9.4 12.1 90 0.9 ESE 26 32 14 17 1007.5 1007.4 0.0
05/12:00am 13.7 8.6 11.9 89 1.0 ESE 30 35 16 19 1007.6 1007.5 0.0
 
Date/Time
EDT
Temp
°C
App
Temp
°C
Dew
Point
°C
Rel
Hum
%
Delta-T
°C
Wind Press
QNH
hPa
Press
MSL
hPa
Rain since
9am
mm
Dir  Spd
km/h
Gust
km/h
Spd
kts
Gust
kts
04/11:30pm 14.0 11.2 11.5 85 1.3 E 17 22 9 12 1007.9 1007.8 0.0
04/11:00pm 13.5 11.0 10.9 84 1.4 E 15 22 8 12 1008.0 1007.9 0.0
04/10:30pm 13.8 10.6 11.1 84 1.4 E 19 24 10 13 1008.6 1008.5 0.0
04/10:00pm 13.9 9.7 11.1 83 1.5 E 24 32 13 17 1008.2 1008.1 0.0
04/09:30pm 14.0 9.4 11.2 83 1.5 E 26 32 14 17 1008.4 1008.3 0.0
04/09:00pm 14.1 9.5 11.1 82 1.6 E 26 35 14 19 1008.5 1008.4 0.0
04/08:30pm 14.2 10.4 11.0 81 1.7 E 22 26 12 14 1008.6 1008.5 0.0
04/08:00pm 14.2 9.9 10.8 80 1.8 E 24 30 13 16 1008.6 1008.5 0.0
04/07:30pm 14.8 10.6 11.0 78 2.0 ENE 24 35 13 19 1008.6 1008.5 0.0
04/07:00pm 14.9 11.1 11.1 78 2.0 ENE 22 28 12 15 1008.2 1008.1 0.0
04/06:30pm 15.3 11.0 10.9 75 2.3 ENE 24 33 13 18 1008.1 1008.0 0.0
04/06:00pm 15.9 10.9 11.1 73 2.6 ENE 28 35 15 19 1008.5 1008.4 0.0
04/05:30pm 15.0 10.8 11.0 77 2.1 ENE 24 32 13 17 1008.8 1008.7 0.0
04/05:00pm 14.6 9.8 11.6 82 1.6 E 28 32 15 17 1009.3 1009.2 0.0
04/04:30pm 14.6 9.3 11.2 80 1.8 ESE 30 35 16 19 1010.3 1010.3 0.0
04/04:00pm 15.3 10.5 11.5 78 2.1 ESE 28 35 15 19 1010.5 1010.5 0.0
04/03:30pm 15.7 11.1 10.9 73 2.6 ESE 26 35 14 19 1010.3 1010.3 0.0
04/03:00pm 16.5 13.0 11.0 70 3.0 ESE 20 24 11 13 1010.5 1010.5 0.0
04/02:30pm 16.9 13.1 11.0 68 3.2 ESE 22 28 12 15 1010.5 1010.5 0.0
04/02:00pm 16.8 13.7 11.5 71 2.9 ESE 19 24 10 13 1010.7 1010.7 0.0
04/01:30pm 16.5 13.0 11.0 70 3.0 ESE 20 26 11 14 1011.0 1011.0 0.0
04/01:00pm 16.4 12.5 10.9 70 3.0 ESE 22 26 12 14 1011.4 1011.4 0.0
04/12:30pm 16.3 12.3 10.4 68 3.1 ESE 22 26 12 14 1011.7 1011.7 0.0
04/12:00pm 16.3 12.4 10.8 70 2.9 ESE 22 28 12 15 1012.0 1012.0 0.0
04/11:30am 16.1 12.7 11.1 72 2.7 ESE 20 24 11 13 1012.4 1012.4 0.0
04/11:00am 15.9 12.7 11.3 74 2.5 ESE 19 22 10 12 1012.6 1012.6 0.0
04/10:30am 15.8 14.5 11.4 75 2.4 S 9 13 5 7 1012.8 1012.8 0.0
04/10:00am 15.0 14.0 11.0 77 2.1 W 7 9 4 5 1012.9 1012.9 0.0
04/09:30am 15.2 14.6 11.6 79 1.9 W 6 9 3 5 1013.0 1013.0 0.0
04/09:00am 14.9 13.7 11.7 81 1.7 W 9 11 5 6 1013.3 1013.3 0.0
04/08:30am 14.2 12.9 11.4 83 1.5 W 9 11 5 6 1013.3 1013.3 0.0
04/08:00am 14.0 13.1 11.5 85 1.3 W 7 9 4 5 1012.9 1012.9 0.0
04/07:30am 13.6 13.2 11.1 85 1.3 NNW 4 9 2 5 1012.7 1012.7 0.0
04/07:00am 13.1 13.1 11.2 88 1.0 NNE 2 6 1 3 1012.6 1012.6 0.0
04/06:30am 12.6 11.6 11.0 90 0.8 ENE 7 9 4 5 1012.4 1012.4 0.0
04/06:00am 12.1 10.6 10.5 90 0.8 NE 9 11 5 6 1012.3 1012.3 0.0
04/05:30am 12.5 10.3 10.9 90 0.8 ESE 13 17 7 9 1012.2 1012.2 0.0
04/05:00am 12.6 9.7 11.0 90 0.8 E 17 20 9 11 1011.9 1011.9 0.0
04/04:30am 12.7 9.2 10.9 89 0.9 ESE 20 24 11 13 1012.2 1012.2 0.0
04/04:00am 12.8 10.7 11.0 89 0.9 S 13 17 7 9 1012.4 1012.4 0.0
04/03:30am 12.5 11.2 11.1 91 0.7 SSE 9 15 5 8 1012.4 1012.4 0.0
04/03:00am 11.7 11.8 10.3 91 0.7 CALM 0 0 0 0 1012.6 1012.6 0.0
04/02:30am 11.7 10.7 10.3 91 0.7 NE 6 9 3 5 1012.5 1012.5 0.0
04/02:00am 11.6 10.0 10.2 91 0.7 E 9 13 5 7 1012.5 1012.5 0.0
04/01:30am 11.6 9.6 10.0 90 0.8 NNE 11 15 6 8 1012.8 1012.8 0.0
04/01:00am 12.1 12.2 10.2 88 1.0 CALM 0 6 0 3 1013.2 1013.2 0.0
04/12:30am 12.8 11.1 11.2 90 0.8 SW 11 17 6 9 1013.9 1013.9 0.0
04/12:00am 12.5 10.3 10.7 89 0.9 SW 13 20 7 11 1014.0 1014.0 0.0
 
Date/Time
EDT
Temp
°C
App
Temp
°C
Dew
Point
°C
Rel
Hum
%
Delta-T
°C
Wind Press
QNH
hPa
Press
MSL
hPa
Rain since
9am
mm
Dir  Spd
km/h
Gust
km/h
Spd
kts
Gust
kts
03/11:30pm 12.7 10.6 11.1 90 0.8 SW 13 20 7 11 1014.0 1014.0 0.0
03/11:00pm 12.7 10.9 10.9 89 0.9 SSW 11 19 6 10 1014.1 1014.1 0.0
03/10:30pm 12.9 10.4 11.1 89 0.9 SW 15 20 8 11 1014.1 1014.1 0.0
03/10:00pm 13.1 11.0 11.0 87 1.1 SW 13 20 7 11 1014.1 1014.1 0.0
03/09:30pm 13.2 11.4 10.9 86 1.2 SSW 11 17 6 9 1013.6 1013.6 0.0
03/09:00pm 13.6 11.9 11.1 85 1.3 SW 11 15 6 8 1013.5 1013.5 0.0
03/08:30pm 13.8 12.1 11.1 84 1.4 SE 11 15 6 8 1013.2 1013.2 0.0
03/08:00pm 14.5 12.8 11.3 81 1.7 SSE 11 15 6 8 1013.0 1013.0 0.0
03/07:30pm 15.4 14.2 11.6 78 2.1 SSW 9 15 5 8 1012.9 1012.9 0.0
03/07:00pm 16.3 15.2 11.9 75 2.4 S 9 15 5 8 1012.6 1012.6 0.0
03/06:30pm 16.8 15.4 12.3 75 2.5 S 11 17 6 9 1012.3 1012.3 0.0
03/06:00pm 17.3 16.3 12.2 72 2.8 ESE 9 13 5 7 1012.2 1012.2 0.0
03/05:30pm 16.6 13.3 12.8 78 2.1 ESE 22 28 12 15 1012.1 1012.1 0.0
03/05:00pm 17.0 13.3 12.7 76 2.4 ESE 24 28 13 15 1012.1 1012.1 0.0
03/04:30pm 18.2 15.8 12.6 70 3.1 SE 17 28 9 15 1012.1 1012.1 0.0
03/04:00pm 18.3 15.1 11.8 66 3.6 S 20 32 11 17 1012.2 1012.2 0.0
03/03:30pm 18.6 15.2 11.2 62 4.0 SE 20 32 11 17 1012.5 1012.5 0.0
03/03:00pm 18.9 16.1 11.5 62 4.1 SE 17 30 9 16 1012.5 1012.5 0.0
03/02:30pm 19.5 16.9 12.0 62 4.2 SE 17 30 9 16 1012.5 1012.5 0.0
03/02:00pm 19.3 15.6 10.0 55 5.0 SE 20 30 11 16 1012.6 1012.6 0.0
03/01:30pm 19.0 15.6 11.1 60 4.3 ESE 20 26 11 14 1012.8 1012.8 0.0
03/01:00pm 19.6 16.2 11.1 58 4.7 ESE 20 24 11 13 1012.8 1012.8 0.0
03/12:30pm 18.6 16.0 12.1 66 3.6 ESE 17 20 9 11 1012.9 1012.9 0.0
03/12:00pm 18.4 15.4 10.8 61 4.1 SE 17 26 9 14 1013.2 1013.2 0.0
03/11:30am 18.0 15.3 11.8 67 3.4 ESE 17 20 9 11 1013.2 1013.2 0.0
03/11:00am 20.0 18.5 10.7 55 5.1 SSW 9 17 5 9 1013.4 1013.4 0.0
03/10:30am 20.1 17.1 9.4 50 5.7 NE 15 22 8 12 1013.5 1013.5 0.0
03/10:00am 18.6 14.8 9.1 54 5.0 NNE 19 26 10 14 1013.7 1013.7 0.0
03/09:30am 17.4 14.1 9.6 60 4.1 NNE 17 24 9 13 1013.9 1013.9 0.0
03/09:00am 16.2 12.1 10.1 67 3.2 NNE 22 30 12 16 1013.8 1013.8 0.0
03/08:30am 16.4 13.5 11.1 71 2.9 N 17 24 9 13 1013.7 1013.7 0.0
03/08:00am 14.6 11.2 10.4 76 2.2 NNE 19 26 10 14 1013.7 1013.7 0.0
03/07:30am 13.5 9.9 10.7 83 1.5 N 20 28 11 15 1013.9 1013.9 0.0
03/07:00am 12.2 8.6 10.4 89 0.9 N 20 26 11 14 1013.8 1013.8 0.0
03/06:30am 11.2 7.4 9.8 91 0.7 N 20 28 11 15 1013.6 1013.6 0.0
03/06:00am 11.0 6.4 9.8 92 0.6 N 24 32 13 17 1013.4 1013.4 0.0
03/05:30am 10.6 5.9 9.4 92 0.6 N 24 30 13 16 1013.5 1013.5 0.0
03/05:00am 10.7 6.4 9.5 92 0.6 N 22 28 12 15 1013.6 1013.6 0.0
03/04:30am 10.8 6.5 9.4 91 0.7 N 22 26 12 14 1013.8 1013.8 0.0
03/04:00am 10.9 7.0 9.5 91 0.7 N 20 24 11 13 1014.0 1014.0 0.0
03/03:30am 10.7 7.3 9.3 91 0.7 N 17 20 9 11 1014.2 1014.2 0.0
03/03:00am 10.5 8.2 8.9 90 0.8 N 11 15 6 8 1014.7 1014.7 0.0
03/02:30am 10.1 8.4 8.5 90 0.8 N 7 9 4 5 1014.8 1014.8 0.0
03/02:00am 10.4 8.4 8.8 90 0.8 NW 9 11 5 6 1015.1 1015.1 0.0
03/01:30am 10.8 10.2 9.1 89 0.8 SW 2 6 1 3 1015.5 1015.5 0.0
03/01:00am 10.9 8.7 9.2 89 0.8 WNW 11 13 6 7 1015.6 1015.6 0.0
03/12:30am 11.3 9.1 9.4 88 1.0 WNW 11 13 6 7 1015.9 1015.9 0.0
03/12:00am 11.9 10.2 10.0 88 1.0 W 9 11 5 6 1016.2 1016.2 0.0
 
Date/Time
EDT
Temp
°C
App
Temp
°C
Dew
Point
°C
Rel
Hum
%
Delta-T
°C
Wind Press
QNH
hPa
Press
MSL
hPa
Rain since
9am
mm
Dir  Spd
km/h
Gust
km/h
Spd
kts
Gust
kts
02/11:30pm 12.0 10.0 10.1 88 1.0 WNW 11 13 6 7 1016.6 1016.6 0.0
02/11:00pm 11.7 9.2 9.6 87 1.1 WNW 13 17 7 9 1016.8 1016.8 0.0

Latest Capital City Observations: Canberra | Sydney | Melbourne | Brisbane | Adelaide | Perth | Hobart | Darwin

Other formats

Comma delimited format used in spreadsheet applications
http://www.bom.gov.au/fwo/IDT60901/IDT60901.95967.axf

JavaScript Object Notation format (JSON) in row-major order
http://www.bom.gov.au/fwo/IDT60901/IDT60901.95967.json

Data quality

Most of these data are generated automatically and are frequently updated. Quality checks on data are not normally performed. It is possible for incorrect values to appear. Refer to information at About Latest Weather Observations and please check the disclaimer before using these data.